Time;durP1;ratioP1;P1;durP2;ratioP2;P2;SDS_P1;SDS_P2;PMS_P1;PMS_P2;Temp;Humidity;BMP_temperature;BMP_pressure;BME280_temperature;BME280_humidity;BME280_pressure;Samples;Min_cycle;Max_cycle;Signal;HPM_P1;HPM_P2
2021/07/20 00:00:28;;;;;;;14.32;8.15;;;;;;;;;;5083014;28;20106;-79
2021/07/20 00:02:57;;;;;;;17.33;8.50;;;;;;;;;;5083111;28;20034;-79
2021/07/20 00:05:28;;;;;;;22.73;8.02;;;;;;;;;;5082342;28;20085;-79
2021/07/20 00:07:56;;;;;;;15.77;7.75;;;;;;;;;;5083102;28;20074;-79
2021/07/20 00:10:37;;;;;;;16.58;7.72;;;;;;;;;;5066182;28;20082;-79
2021/07/20 00:13:05;;;;;;;13.27;7.80;;;;;;;;;;5082667;28;20036;-79
2021/07/20 00:15:31;;;;;;;18.80;8.23;;;;;;;;;;5065724;28;20040;-79
2021/07/20 00:18:00;;;;;;;11.30;7.32;;;;;;;;;;5081765;28;20103;-79
2021/07/20 00:20:28;;;;;;;13.23;7.60;;;;;;;;;;5065508;28;20085;-79
2021/07/20 00:22:54;;;;;;;15.02;8.07;;;;;;;;;;5065278;28;20056;-80
2021/07/20 00:25:20;;;;;;;17.40;8.90;;;;;;;;;;5082066;28;20478;-79
2021/07/20 00:27:46;;;;;;;14.77;7.82;;;;;;;;;;5082224;28;20032;-79
2021/07/20 00:30:14;;;;;;;13.05;8.43;;;;;;;;;;5081597;28;20608;-79
2021/07/20 00:32:43;;;;;;;12.15;8.25;;;;;;;;;;5064127;28;20055;-79
2021/07/20 00:35:13;;;;;;;13.63;8.15;;;;;;;;;;5081564;28;20502;-79
2021/07/20 00:37:39;;;;;;;12.98;8.00;;;;;;;;;;5082396;28;20032;-79
2021/07/20 00:40:08;;;;;;;19.05;8.60;;;;;;;;;;5081406;28;20047;-79
2021/07/20 00:42:34;;;;;;;13.40;7.57;;;;;;;;;;5065165;28;20032;-79
2021/07/20 00:45:01;;;;;;;14.55;7.78;;;;;;;;;;5072745;28;20118;-79
2021/07/20 00:47:27;;;;;;;18.27;8.90;;;;;;;;;;5119306;28;20071;-79
2021/07/20 00:49:53;;;;;;;12.90;7.72;;;;;;;;;;5085230;28;20035;-79
2021/07/20 00:52:18;;;;;;;11.73;7.40;;;;;;;;;;5087283;27;20040;-79
2021/07/20 00:54:46;;;;;;;10.77;7.55;;;;;;;;;;5104599;27;20031;-79
2021/07/20 00:57:12;;;;;;;16.80;8.38;;;;;;;;;;5105377;27;20102;-79
2021/07/20 00:59:39;;;;;;;11.77;7.10;;;;;;;;;;5104560;27;20076;-79
2021/07/20 01:02:06;;;;;;;15.68;8.50;;;;;;;;;;5120903;27;20031;-79
2021/07/20 01:04:33;;;;;;;19.52;8.52;;;;;;;;;;5121598;27;20031;-79
2021/07/20 01:07:00;;;;;;;11.23;7.72;;;;;;;;;;5104027;27;20041;-79
2021/07/20 01:09:30;;;;;;;13.77;8.13;;;;;;;;;;5104153;27;20462;-79
2021/07/20 01:11:57;;;;;;;12.68;8.82;;;;;;;;;;5103754;27;20118;-79
2021/07/20 01:14:25;;;;;;;12.55;8.50;;;;;;;;;;5104033;27;20119;-79
2021/07/20 01:16:50;;;;;;;16.17;9.05;;;;;;;;;;5121276;27;20485;-79
2021/07/20 01:19:18;;;;;;;17.45;8.60;;;;;;;;;;5121778;27;20023;-80
2021/07/20 01:21:47;;;;;;;16.33;8.70;;;;;;;;;;5104557;27;20027;-79
2021/07/20 01:24:17;;;;;;;15.48;9.20;;;;;;;;;;5101983;28;20557;-79
2021/07/20 01:26:45;;;;;;;12.30;8.13;;;;;;;;;;5100462;28;20486;-79
2021/07/20 01:29:12;;;;;;;15.07;8.88;;;;;;;;;;5117568;28;20466;-79
2021/07/20 01:31:41;;;;;;;14.80;9.15;;;;;;;;;;5100707;28;20043;-79
2021/07/20 01:34:13;;;;;;;13.93;9.20;;;;;;;;;;5100515;28;20028;-79
2021/07/20 01:36:45;;;;;;;17.48;9.90;;;;;;;;;;5102964;28;20027;-79
2021/07/20 01:39:13;;;;;;;18.70;9.10;;;;;;;;;;5118667;28;20035;-79
2021/07/20 01:41:41;;;;;;;15.30;9.02;;;;;;;;;;5102191;28;20529;-79
2021/07/20 01:44:12;;;;;;;15.20;8.95;;;;;;;;;;5118593;28;20027;-79
2021/07/20 01:46:47;;;;;;;16.20;8.88;;;;;;;;;;5103195;28;20028;-79
2021/07/20 01:49:16;;;;;;;16.20;7.82;;;;;;;;;;5101408;28;20575;-79
2021/07/20 01:51:45;;;;;;;18.52;9.00;;;;;;;;;;5118218;28;20023;-79
2021/07/20 01:54:15;;;;;;;18.02;9.38;;;;;;;;;;5079621;28;20036;-79
2021/07/20 01:56:41;;;;;;;18.92;8.68;;;;;;;;;;5077357;28;20031;-79
2021/07/20 01:59:12;;;;;;;14.57;9.25;;;;;;;;;;5094493;28;20499;-79
2021/07/20 02:02:08;;;;;;;15.80;9.45;;;;;;;;;;5091127;28;20037;-79
2021/07/20 02:10:12;;;;;;;18.15;9.60;;;;;;;;;;5095072;28;20678;-79
2021/07/20 02:13:01;;;;;;;15.80;9.00;;;;;;;;;;5092431;28;20040;-79
2021/07/20 02:15:37;;;;;;;15.85;8.52;;;;;;;;;;5060867;28;20074;-79
2021/07/20 02:18:19;;;;;;;19.00;9.40;;;;;;;;;;5076982;28;20060;-79
2021/07/20 02:20:45;;;;;;;16.10;10.75;;;;;;;;;;5060497;28;20495;-80
2021/07/20 02:23:23;;;;;;;17.30;9.38;;;;;;;;;;5082816;28;20070;-80
2021/07/20 02:25:50;;;;;;;16.05;9.35;;;;;;;;;;5060785;28;20491;-80
2021/07/20 02:28:16;;;;;;;16.90;9.40;;;;;;;;;;5060486;28;20032;-80
2021/07/20 02:30:44;;;;;;;17.15;9.05;;;;;;;;;;5076468;28;20039;-81
2021/07/20 02:33:14;;;;;;;21.13;9.70;;;;;;;;;;5060873;28;20032;-80
2021/07/20 02:35:40;;;;;;;19.98;10.30;;;;;;;;;;5060685;28;20116;-80
2021/07/20 02:38:22;;;;;;;14.88;10.18;;;;;;;;;;5076921;28;20379;-80
2021/07/20 02:40:50;;;;;;;18.02;9.45;;;;;;;;;;5078600;28;20028;-80
2021/07/20 02:43:18;;;;;;;20.17;10.38;;;;;;;;;;5053418;28;20032;-80
2021/07/20 02:45:45;;;;;;;26.50;11.02;;;;;;;;;;5039936;28;20025;-80
2021/07/20 02:48:13;;;;;;;20.08;10.32;;;;;;;;;;5040921;28;20029;-80
2021/07/20 02:50:41;;;;;;;18.25;10.45;;;;;;;;;;5057968;28;20029;-80
2021/07/20 02:53:16;;;;;;;20.02;10.45;;;;;;;;;;5056711;28;20029;-79
2021/07/20 02:55:53;;;;;;;18.00;9.17;;;;;;;;;;5042732;28;20037;-81
2021/07/20 02:58:20;;;;;;;18.75;9.88;;;;;;;;;;5067894;28;20067;-84
2021/07/20 03:00:47;;;;;;;17.98;10.15;;;;;;;;;;5072181;28;20060;-81
2021/07/20 03:03:14;;;;;;;16.42;10.00;;;;;;;;;;5058235;28;20101;-81
2021/07/20 03:05:48;;;;;;;15.43;9.25;;;;;;;;;;5058994;28;20269;-81
2021/07/20 03:08:16;;;;;;;16.27;8.50;;;;;;;;;;5075660;28;20040;-81
2021/07/20 03:10:57;;;;;;;19.98;9.80;;;;;;;;;;5073446;28;20036;-81
2021/07/20 03:13:26;;;;;;;16.02;10.00;;;;;;;;;;5080614;28;20028;-80
2021/07/20 03:15:52;;;;;;;16.85;9.50;;;;;;;;;;5078202;28;20068;-81
2021/07/20 03:18:28;;;;;;;17.27;9.38;;;;;;;;;;5077213;28;20036;-81
2021/07/20 03:20:59;;;;;;;16.75;10.63;;;;;;;;;;5080063;28;20028;-81
2021/07/20 03:23:29;;;;;;;19.50;9.32;;;;;;;;;;5078330;28;20063;-80
2021/07/20 03:25:59;;;;;;;16.55;9.82;;;;;;;;;;5095131;28;20040;-81
2021/07/20 03:28:30;;;;;;;13.85;9.13;;;;;;;;;;5095866;28;20052;-80
2021/07/20 03:30:58;;;;;;;15.25;9.45;;;;;;;;;;5096108;28;20032;-81
2021/07/20 03:33:24;;;;;;;17.50;9.45;;;;;;;;;;5112848;28;20039;-81
2021/07/20 03:35:59;;;;;;;14.80;9.60;;;;;;;;;;5114039;28;20023;-81
2021/07/20 03:38:28;;;;;;;13.93;8.88;;;;;;;;;;5096763;28;20028;-80
2021/07/20 03:41:00;;;;;;;19.27;10.05;;;;;;;;;;5080273;28;20085;-80
2021/07/20 03:43:28;;;;;;;17.90;10.18;;;;;;;;;;5067322;28;20074;-80
2021/07/20 03:45:55;;;;;;;18.52;10.07;;;;;;;;;;5081247;28;20029;-80
2021/07/20 03:48:22;;;;;;;15.88;9.82;;;;;;;;;;5079594;28;20035;-80
2021/07/20 03:50:54;;;;;;;18.95;10.23;;;;;;;;;;5080163;28;20024;-81
2021/07/20 03:53:20;;;;;;;20.20;10.55;;;;;;;;;;5062524;28;20074;-81
2021/07/20 03:55:49;;;;;;;15.10;10.23;;;;;;;;;;5062502;28;20090;-80
2021/07/20 03:58:17;;;;;;;13.38;9.60;;;;;;;;;;5062094;28;20123;-80
2021/07/20 04:00:54;;;;;;;19.70;10.18;;;;;;;;;;5062546;28;20099;-80
2021/07/20 04:03:26;;;;;;;13.48;9.18;;;;;;;;;;5063329;28;20369;-81
2021/07/20 04:06:08;;;;;;;17.67;9.23;;;;;;;;;;5079159;28;20036;-80
2021/07/20 04:08:44;;;;;;;22.83;10.23;;;;;;;;;;5063205;28;20032;-80
2021/07/20 04:11:15;;;;;;;15.88;8.73;;;;;;;;;;5062293;28;20040;-80
2021/07/20 04:13:44;;;;;;;14.30;9.35;;;;;;;;;;5058960;28;20025;-80
2021/07/20 04:16:13;;;;;;;18.75;8.68;;;;;;;;;;5074426;28;20040;-80
2021/07/20 04:18:39;;;;;;;21.50;10.07;;;;;;;;;;5058414;28;20123;-80
2021/07/20 04:21:07;;;;;;;16.30;8.80;;;;;;;;;;5075837;28;20504;-81
2021/07/20 04:23:36;;;;;;;19.48;10.07;;;;;;;;;;5064708;28;20052;-80
2021/07/20 04:26:08;;;;;;;15.10;8.93;;;;;;;;;;5062298;28;20032;-80
2021/07/20 04:28:36;;;;;;;18.05;10.13;;;;;;;;;;5078134;28;20040;-80
2021/07/20 04:31:06;;;;;;;14.00;9.32;;;;;;;;;;5078509;28;20040;-80
2021/07/20 04:33:33;;;;;;;16.30;10.48;;;;;;;;;;5095201;28;20056;-80
2021/07/20 04:36:20;;;;;;;17.57;9.80;;;;;;;;;;5078993;28;20043;-80
2021/07/20 04:38:48;;;;;;;18.75;10.70;;;;;;;;;;5094611;28;20036;-80
2021/07/20 04:41:18;;;;;;;14.05;9.45;;;;;;;;;;5078207;28;20028;-80
2021/07/20 04:43:46;;;;;;;17.45;10.05;;;;;;;;;;5078891;28;20090;-80
2021/07/20 04:46:18;;;;;;;18.02;10.10;;;;;;;;;;5094620;28;20574;-80
2021/07/20 04:48:45;;;;;;;13.85;9.30;;;;;;;;;;5094082;28;20036;-80
2021/07/20 04:51:14;;;;;;;18.48;9.00;;;;;;;;;;5093895;28;20475;-79
2021/07/20 04:53:40;;;;;;;16.33;9.40;;;;;;;;;;5061132;28;20058;-81
2021/07/20 04:56:07;;;;;;;16.45;9.65;;;;;;;;;;5078030;28;20396;-81
2021/07/20 04:58:35;;;;;;;13.77;9.38;;;;;;;;;;5061229;28;20055;-81
2021/07/20 05:01:02;;;;;;;16.38;9.65;;;;;;;;;;5077012;28;20056;-81
2021/07/20 05:03:31;;;;;;;18.58;9.90;;;;;;;;;;5060669;28;20024;-81
2021/07/20 05:05:58;;;;;;;17.00;9.93;;;;;;;;;;5061067;28;20455;-81
2021/07/20 05:08:31;;;;;;;15.13;10.52;;;;;;;;;;5062858;28;20036;-81
2021/07/20 05:10:59;;;;;;;19.58;9.82;;;;;;;;;;5062022;28;20043;-81
2021/07/20 05:13:32;;;;;;;17.50;10.15;;;;;;;;;;5061841;28;20047;-81
2021/07/20 05:16:00;;;;;;;16.77;8.80;;;;;;;;;;5061034;28;20130;-81
2021/07/20 05:18:37;;;;;;;13.13;8.75;;;;;;;;;;5061576;28;20032;-81
2021/07/20 05:21:07;;;;;;;15.85;9.88;;;;;;;;;;5061281;28;20036;-81
2021/07/20 05:23:35;;;;;;;14.10;8.85;;;;;;;;;;5072276;28;20500;-81
2021/07/20 05:26:21;;;;;;;14.88;8.93;;;;;;;;;;5058931;28;20036;-81
2021/07/20 05:28:48;;;;;;;14.43;8.60;;;;;;;;;;5057651;28;20067;-81
2021/07/20 05:31:15;;;;;;;17.48;9.40;;;;;;;;;;5040622;28;20025;-81
2021/07/20 05:33:43;;;;;;;23.85;9.88;;;;;;;;;;5041339;28;20028;-81
2021/07/20 05:36:13;;;;;;;15.90;9.98;;;;;;;;;;5042001;28;20036;-81
2021/07/20 05:38:41;;;;;;;16.65;9.05;;;;;;;;;;5041641;28;20029;-81
2021/07/20 05:41:28;;;;;;;16.23;9.13;;;;;;;;;;5057573;28;20037;-81
2021/07/20 05:43:56;;;;;;;17.75;9.15;;;;;;;;;;5041052;28;20045;-80
2021/07/20 05:46:22;;;;;;;18.13;9.20;;;;;;;;;;5057974;28;20094;-81
2021/07/20 05:48:49;;;;;;;13.75;8.35;;;;;;;;;;5041756;28;20061;-81
2021/07/20 05:51:16;;;;;;;13.45;9.10;;;;;;;;;;5058410;28;20065;-84
2021/07/20 05:54:13;;;;;;;15.73;9.38;;;;;;;;;;5046057;28;20040;-84
2021/07/20 05:56:58;;;;;;;17.95;8.40;;;;;;;;;;5071794;28;20044;-84
2021/07/20 05:59:39;;;;;;;17.33;10.15;;;;;;;;;;5043324;28;20037;-84
2021/07/20 06:02:12;;;;;;;15.65;9.00;;;;;;;;;;5041399;28;20029;-86
2021/07/20 06:04:39;;;;;;;14.43;8.70;;;;;;;;;;5052349;28;20037;-85
2021/07/20 06:07:06;;;;;;;18.98;9.20;;;;;;;;;;5054888;28;20040;-82
2021/07/20 06:09:32;;;;;;;16.00;8.90;;;;;;;;;;5056705;28;20108;-82
2021/07/20 06:11:59;;;;;;;26.38;9.82;;;;;;;;;;5073977;28;20033;-81
2021/07/20 06:14:25;;;;;;;18.70;8.73;;;;;;;;;;5058997;28;20400;-84
2021/07/20 06:16:52;;;;;;;13.68;8.27;;;;;;;;;;5059033;28;20476;-86
2021/07/20 06:19:19;;;;;;;13.23;8.50;;;;;;;;;;5058022;28;20550;-84
2021/07/20 06:21:46;;;;;;;18.67;8.20;;;;;;;;;;5058197;28;20437;-83
2021/07/20 06:24:22;;;;;;;14.07;8.75;;;;;;;;;;5057326;28;20067;-83
2021/07/20 06:26:48;;;;;;;15.30;8.32;;;;;;;;;;5039981;28;20045;-85
2021/07/20 06:29:14;;;;;;;11.10;7.60;;;;;;;;;;5041632;28;20039;-82
2021/07/20 06:31:44;;;;;;;16.83;8.18;;;;;;;;;;5075926;28;20075;-78
2021/07/20 06:34:13;;;;;;;13.55;8.00;;;;;;;;;;5041191;28;20040;-82
2021/07/20 06:36:42;;;;;;;15.05;8.18;;;;;;;;;;5040545;28;20406;-82
2021/07/20 06:39:09;;;;;;;16.20;7.57;;;;;;;;;;5041008;28;20032;-84
2021/07/20 06:41:38;;;;;;;14.13;7.00;;;;;;;;;;5074218;28;20045;-79
2021/07/20 06:44:07;;;;;;;13.73;6.28;;;;;;;;;;5073538;28;20041;-84
2021/07/20 06:46:36;;;;;;;11.27;6.10;;;;;;;;;;5073876;28;20033;-83
2021/07/20 06:49:02;;;;;;;12.77;6.65;;;;;;;;;;5040790;28;20072;-83
2021/07/20 06:51:30;;;;;;;10.32;6.30;;;;;;;;;;5096357;28;20044;-83
2021/07/20 06:54:00;;;;;;;15.10;6.63;;;;;;;;;;5080525;28;20032;-83
2021/07/20 06:56:53;;;;;;;14.60;6.78;;;;;;;;;;5079468;28;20384;-82
2021/07/20 06:59:20;;;;;;;8.75;5.88;;;;;;;;;;5076245;28;20108;-83
2021/07/20 07:01:46;;;;;;;10.65;5.70;;;;;;;;;;5096738;28;20036;-83
2021/07/20 07:04:26;;;;;;;17.92;6.72;;;;;;;;;;5096909;28;20088;-85
2021/07/20 07:06:57;;;;;;;12.88;6.13;;;;;;;;;;5080156;28;20059;-84
2021/07/20 07:09:26;;;;;;;11.25;6.53;;;;;;;;;;5097010;28;20059;-84
2021/07/20 07:11:52;;;;;;;15.40;6.93;;;;;;;;;;5096792;28;20020;-81
2021/07/20 07:14:18;;;;;;;9.38;5.80;;;;;;;;;;5079631;28;20043;-81
2021/07/20 07:16:46;;;;;;;11.63;6.03;;;;;;;;;;5095311;28;20219;-81
2021/07/20 07:19:14;;;;;;;9.18;5.32;;;;;;;;;;5042094;28;20045;-81
2021/07/20 07:21:42;;;;;;;12.00;6.05;;;;;;;;;;5040878;28;20028;-81
2021/07/20 07:24:11;;;;;;;10.60;5.80;;;;;;;;;;5047387;28;20492;-81
2021/07/20 07:26:37;;;;;;;6.13;4.50;;;;;;;;;;5039752;28;20033;-81
2021/07/20 07:29:02;;;;;;;7.90;4.97;;;;;;;;;;5056578;28;20040;-81
2021/07/20 07:31:28;;;;;;;8.40;5.00;;;;;;;;;;5056660;28;20045;-81
2021/07/20 07:33:54;;;;;;;5.85;4.65;;;;;;;;;;5056937;28;20061;-80
2021/07/20 07:36:22;;;;;;;7.43;4.72;;;;;;;;;;5055786;28;20025;-81
2021/07/20 07:38:48;;;;;;;7.53;4.40;;;;;;;;;;5056237;28;20029;-81
2021/07/20 07:41:17;;;;;;;10.48;4.97;;;;;;;;;;5039459;28;20029;-81
2021/07/20 07:43:44;;;;;;;6.35;4.50;;;;;;;;;;5059793;28;20549;-81
2021/07/20 07:46:11;;;;;;;7.18;4.80;;;;;;;;;;5059834;28;20039;-82
2021/07/20 07:48:39;;;;;;;7.80;5.07;;;;;;;;;;5070466;28;20476;-81
2021/07/20 07:51:06;;;;;;;6.32;4.40;;;;;;;;;;5042544;28;20083;-80
2021/07/20 07:53:34;;;;;;;8.95;5.07;;;;;;;;;;5076141;28;20033;-81
2021/07/20 07:56:00;;;;;;;7.72;4.60;;;;;;;;;;5057545;28;20029;-81
2021/07/20 07:58:29;;;;;;;8.70;5.63;;;;;;;;;;5074194;28;20491;-80
2021/07/20 08:01:01;;;;;;;5.85;4.93;;;;;;;;;;5074399;28;20044;-81
2021/07/20 08:03:28;;;;;;;7.78;5.40;;;;;;;;;;5075470;28;20179;-81
2021/07/20 08:05:55;;;;;;;8.30;4.78;;;;;;;;;;5075985;28;20025;-81
2021/07/20 08:08:20;;;;;;;7.50;4.85;;;;;;;;;;5058262;28;20411;-82
2021/07/20 08:10:47;;;;;;;8.63;4.88;;;;;;;;;;5075989;28;20029;-82
2021/07/20 08:13:14;;;;;;;12.68;5.53;;;;;;;;;;5058491;28;20039;-79
2021/07/20 08:15:40;;;;;;;10.05;4.50;;;;;;;;;;5074929;28;20040;-81
2021/07/20 08:18:07;;;;;;;11.15;5.07;;;;;;;;;;5075716;28;20135;-80
2021/07/20 08:20:34;;;;;;;10.40;4.97;;;;;;;;;;5058084;28;20033;-80
2021/07/20 08:23:00;;;;;;;7.90;4.68;;;;;;;;;;5061104;28;20488;-80
2021/07/20 08:25:30;;;;;;;10.00;5.93;;;;;;;;;;5081075;28;20036;-80
2021/07/20 08:28:08;;;;;;;7.82;4.90;;;;;;;;;;5082001;28;20043;-80
2021/07/20 08:30:37;;;;;;;10.15;4.57;;;;;;;;;;5082179;28;20036;-81
2021/07/20 08:33:05;;;;;;;7.53;4.72;;;;;;;;;;5098530;28;20556;-81
2021/07/20 08:35:34;;;;;;;8.55;4.82;;;;;;;;;;5081682;28;20411;-80
2021/07/20 08:38:09;;;;;;;7.53;5.45;;;;;;;;;;5081623;28;20031;-80
2021/07/20 08:40:49;;;;;;;6.18;4.95;;;;;;;;;;5081756;28;20043;-81
2021/07/20 08:43:33;;;;;;;29.70;5.93;;;;;;;;;;5108504;27;20080;-81
2021/07/20 08:46:13;;;;;;;14.65;5.47;;;;;;;;;;5122767;27;20102;-81
2021/07/20 08:49:02;;;;;;;9.30;4.68;;;;;;;;;;5122196;27;20035;-80
2021/07/20 08:51:47;;;;;;;6.05;4.70;;;;;;;;;;5121992;27;20078;-81
2021/07/20 08:54:24;;;;;;;10.47;5.30;;;;;;;;;;5104377;27;20034;-81
2021/07/20 08:56:51;;;;;;;8.10;5.10;;;;;;;;;;5105466;27;20038;-80
2021/07/20 08:59:26;;;;;;;8.63;6.03;;;;;;;;;;5105442;27;20019;-80
2021/07/20 09:02:04;;;;;;;7.55;4.90;;;;;;;;;;5123137;27;20088;-80
2021/07/20 09:04:40;;;;;;;15.27;5.85;;;;;;;;;;5122992;27;20031;-80
2021/07/20 09:07:12;;;;;;;10.13;5.22;;;;;;;;;;5106082;27;20443;-81
2021/07/20 09:09:47;;;;;;;9.63;5.28;;;;;;;;;;5105482;27;20485;-81
2021/07/20 09:12:27;;;;;;;6.13;4.57;;;;;;;;;;5107173;27;20035;-81
2021/07/20 09:15:00;;;;;;;9.23;5.60;;;;;;;;;;5106382;27;20402;-80
2021/07/20 09:17:51;;;;;;;5.75;3.83;;;;;;;;;;5122048;27;20466;-81
2021/07/20 09:20:25;;;;;;;6.32;3.85;;;;;;;;;;5106444;27;20031;-81
2021/07/20 09:23:07;;;;;;;6.65;4.13;;;;;;;;;;5122873;27;20095;-81
2021/07/20 09:25:41;;;;;;;5.30;4.32;;;;;;;;;;5104806;27;20053;-80
2021/07/20 09:28:20;;;;;;;4.97;3.67;;;;;;;;;;5122574;27;20043;-81
2021/07/20 09:30:49;;;;;;;5.80;4.22;;;;;;;;;;5105060;27;20035;-80
2021/07/20 09:33:54;;;;;;;13.93;5.15;;;;;;;;;;5122245;27;20053;-81
2021/07/20 09:36:24;;;;;;;85.75;14.77;;;;;;;;;;5104135;27;20133;-80
2021/07/20 09:38:56;;;;;;;13.45;7.13;;;;;;;;;;5139722;27;20035;-81
2021/07/20 09:41:40;;;;;;;7.80;3.80;;;;;;;;;;5140519;27;20031;-82
2021/07/20 09:44:25;;;;;;;7.25;4.13;;;;;;;;;;5104649;27;20031;-81
2021/07/20 09:46:58;;;;;;;8.70;4.22;;;;;;;;;;5104670;27;20042;-80
2021/07/20 09:49:37;;;;;;;7.97;4.00;;;;;;;;;;5103873;27;20039;-81
2021/07/20 09:52:25;;;;;;;6.63;4.03;;;;;;;;;;5121205;27;20035;-81
2021/07/20 09:55:17;;;;;;;7.28;4.38;;;;;;;;;;5104147;27;20046;-81
2021/07/20 09:58:00;;;;;;;9.10;4.00;;;;;;;;;;5104053;27;20031;-81
2021/07/20 10:00:37;;;;;;;7.85;3.80;;;;;;;;;;5121304;27;20512;-81
2021/07/20 10:03:22;;;;;;;6.72;3.97;;;;;;;;;;5104088;27;20435;-80
2021/07/20 10:06:32;;;;;;;4.75;3.33;;;;;;;;;;5104286;27;20444;-80
2021/07/20 10:09:02;;;;;;;11.77;4.30;;;;;;;;;;5002951;28;20437;-80
2021/07/20 10:11:30;;;;;;;6.30;3.70;;;;;;;;;;5102805;27;20057;-80
2021/07/20 10:14:14;;;;;;;5.55;3.80;;;;;;;;;;5104052;27;20087;-80
2021/07/20 10:16:53;;;;;;;6.13;3.50;;;;;;;;;;5083549;28;20478;-80
2021/07/20 10:19:36;;;;;;;4.93;3.17;;;;;;;;;;5116738;28;20038;-80
2021/07/20 10:22:04;;;;;;;5.50;3.38;;;;;;;;;;5083333;28;20024;-80
2021/07/20 10:24:32;;;;;;;6.80;3.70;;;;;;;;;;5080046;28;20566;-80
2021/07/20 10:27:13;;;;;;;4.22;3.28;;;;;;;;;;5096639;28;20036;-81
2021/07/20 10:30:04;;;;;;;7.70;3.15;;;;;;;;;;5096776;28;20482;-81
2021/07/20 10:32:40;;;;;;;4.13;2.83;;;;;;;;;;5112632;28;20070;-80
2021/07/20 10:35:13;;;;;;;4.90;3.08;;;;;;;;;;5096473;28;20439;-79
2021/07/20 10:37:44;;;;;;;4.25;3.05;;;;;;;;;;5096552;28;20079;-81
2021/07/20 10:40:15;;;;;;;5.18;3.17;;;;;;;;;;5096419;28;20035;-83
2021/07/20 10:42:49;;;;;;;7.20;3.03;;;;;;;;;;5095811;28;20032;-78
2021/07/20 10:45:18;;;;;;;6.03;3.05;;;;;;;;;;5095630;28;20064;-80
2021/07/20 10:48:04;;;;;;;8.65;3.38;;;;;;;;;;5096630;28;20029;-78
2021/07/20 10:50:53;;;;;;;7.82;3.50;;;;;;;;;;5094349;28;20131;-79
2021/07/20 10:53:27;;;;;;;6.47;3.28;;;;;;;;;;5096616;28;20036;-82
2021/07/20 10:56:04;;;;;;;5.30;3.25;;;;;;;;;;5097177;28;20078;-82
2021/07/20 10:59:04;;;;;;;7.00;3.60;;;;;;;;;;5080486;28;20039;-82
2021/07/20 11:01:41;;;;;;;4.28;3.50;;;;;;;;;;5098656;28;20028;-81
2021/07/20 11:04:37;;;;;;;4.82;3.33;;;;;;;;;;5098072;28;20111;-83
2021/07/20 11:07:06;;;;;;;4.32;3.28;;;;;;;;;;5098129;28;20032;-84
2021/07/20 11:09:32;;;;;;;4.45;3.13;;;;;;;;;;5101976;28;20032;-85
2021/07/20 11:12:02;;;;;;;7.57;3.58;;;;;;;;;;5116865;28;20028;-83
2021/07/20 11:14:42;;;;;;;16.65;11.55;;;;;;;;;;5118570;28;20046;-84
2021/07/20 11:17:09;;;;;;;25.80;17.27;;;;;;;;;;5102432;28;20127;-83
2021/07/20 11:19:35;;;;;;;7.57;3.65;;;;;;;;;;5088221;28;20053;-83
2021/07/20 11:22:03;;;;;;;5.68;3.55;;;;;;;;;;5086920;28;20040;-83
2021/07/20 11:24:30;;;;;;;6.70;3.47;;;;;;;;;;5087538;28;20055;-83
2021/07/20 11:27:00;;;;;;;4.47;3.15;;;;;;;;;;5086828;28;20486;-83
2021/07/20 11:29:29;;;;;;;8.50;3.70;;;;;;;;;;5087382;28;20107;-83
2021/07/20 11:32:00;;;;;;;7.18;3.55;;;;;;;;;;5089200;28;20040;-83
2021/07/20 11:34:35;;;;;;;6.75;3.47;;;;;;;;;;5104575;28;20032;-82
2021/07/20 11:37:10;;;;;;;3.58;2.70;;;;;;;;;;5088085;28;20379;-83
2021/07/20 11:39:40;;;;;;;5.70;2.78;;;;;;;;;;5087654;28;20028;-83
2021/07/20 11:42:23;;;;;;;4.55;3.25;;;;;;;;;;5088787;28;20036;-82
2021/07/20 11:44:57;;;;;;;4.68;3.10;;;;;;;;;;5088050;28;20032;-83
2021/07/20 11:47:28;;;;;;;5.22;2.88;;;;;;;;;;5104701;28;20058;-82
2021/07/20 11:49:58;;;;;;;6.38;3.17;;;;;;;;;;5104577;28;20032;-83
2021/07/20 11:52:37;;;;;;;6.03;3.22;;;;;;;;;;5104496;28;20475;-82
2021/07/20 11:55:11;;;;;;;5.13;2.97;;;;;;;;;;5104388;28;20050;-83
2021/07/20 11:57:55;;;;;;;8.05;3.30;;;;;;;;;;5121754;28;20032;-83
2021/07/20 12:01:08;;;;;;;7.13;2.67;;;;;;;;;;5104808;28;20035;-83
2021/07/20 12:03:44;;;;;;;6.72;2.75;;;;;;;;;;5104125;28;20035;-83
2021/07/20 12:06:33;;;;;;;11.52;3.13;;;;;;;;;;5104585;28;20310;-83
2021/07/20 12:09:28;;;;;;;6.85;2.95;;;;;;;;;;5107537;28;20047;-83
2021/07/20 12:11:56;;;;;;;6.07;3.00;;;;;;;;;;5107780;28;20038;-83
2021/07/20 12:14:22;;;;;;;11.85;3.78;;;;;;;;;;5106002;28;20032;-82
2021/07/20 12:16:48;;;;;;;5.90;3.17;;;;;;;;;;5089128;28;20039;-83
2021/07/20 12:19:24;;;;;;;4.93;2.53;;;;;;;;;;5088234;28;20028;-82
2021/07/20 12:21:50;;;;;;;8.13;3.22;;;;;;;;;;5088217;28;20044;-82
2021/07/20 12:24:16;;;;;;;4.88;2.88;;;;;;;;;;5104884;28;20051;-82
2021/07/20 12:26:44;;;;;;;8.63;3.08;;;;;;;;;;5086840;28;20040;-82
2021/07/20 12:29:11;;;;;;;10.30;3.80;;;;;;;;;;5102212;28;20039;-83
2021/07/20 12:31:39;;;;;;;8.27;3.60;;;;;;;;;;5084164;28;20032;-83
2021/07/20 12:34:10;;;;;;;3.45;2.40;;;;;;;;;;5086950;28;20171;-83
2021/07/20 12:36:36;;;;;;;8.10;2.80;;;;;;;;;;5089375;28;20047;-83
2021/07/20 12:39:20;;;;;;;4.88;2.42;;;;;;;;;;5089156;28;20044;-83
2021/07/20 12:41:54;;;;;;;3.80;2.35;;;;;;;;;;5088724;28;20063;-83
2021/07/20 12:44:22;;;;;;;5.32;2.58;;;;;;;;;;5083211;28;20040;-83
2021/07/20 12:46:48;;;;;;;3.90;2.50;;;;;;;;;;5069129;28;20466;-83
2021/07/20 12:49:15;;;;;;;6.35;2.67;;;;;;;;;;5084972;28;20043;-82
2021/07/20 12:51:52;;;;;;;5.97;2.35;;;;;;;;;;5068515;28;20566;-83
2021/07/20 12:54:37;;;;;;;5.45;2.40;;;;;;;;;;5084771;28;20028;-83
2021/07/20 12:57:04;;;;;;;5.20;2.55;;;;;;;;;;5084564;28;20399;-83
2021/07/20 12:59:29;;;;;;;7.60;2.70;;;;;;;;;;5067373;28;20035;-83
2021/07/20 13:01:58;;;;;;;6.18;2.35;;;;;;;;;;5084036;28;20115;-83
2021/07/20 13:04:24;;;;;;;6.38;2.70;;;;;;;;;;5066661;28;20032;-83
2021/07/20 13:06:53;;;;;;;6.93;2.58;;;;;;;;;;5065544;28;20033;-82
2021/07/20 13:09:20;;;;;;;6.93;2.72;;;;;;;;;;5066435;28;20033;-82
2021/07/20 13:11:46;;;;;;;5.70;2.45;;;;;;;;;;5065928;28;20051;-83
2021/07/20 13:14:12;;;;;;;5.60;2.55;;;;;;;;;;5085532;28;20383;-83
2021/07/20 13:16:41;;;;;;;4.97;2.55;;;;;;;;;;5101997;28;20556;-83
2021/07/20 13:19:09;;;;;;;5.45;2.60;;;;;;;;;;5103068;28;20493;-83
2021/07/20 13:21:39;;;;;;;5.68;2.60;;;;;;;;;;5101610;28;20463;-83
2021/07/20 13:24:08;;;;;;;5.50;2.83;;;;;;;;;;5074009;28;20051;-83
2021/07/20 13:26:34;;;;;;;5.28;2.42;;;;;;;;;;5097973;28;20033;-83
2021/07/20 13:29:03;;;;;;;5.97;2.78;;;;;;;;;;5081052;28;20460;-83
2021/07/20 13:31:34;;;;;;;5.75;2.60;;;;;;;;;;5098810;28;20044;-83
2021/07/20 13:34:01;;;;;;;4.97;2.83;;;;;;;;;;5097269;28;20143;-83
2021/07/20 13:36:31;;;;;;;6.13;2.47;;;;;;;;;;5097070;28;20028;-83
2021/07/20 13:38:58;;;;;;;4.93;2.42;;;;;;;;;;5077774;28;20041;-80
2021/07/20 13:41:24;;;;;;;6.55;2.65;;;;;;;;;;5059962;28;20032;-80
2021/07/20 13:43:54;;;;;;;6.90;2.72;;;;;;;;;;5094971;28;20049;-81
2021/07/20 13:46:22;;;;;;;4.57;2.22;;;;;;;;;;5095329;28;20033;-83
2021/07/20 13:48:49;;;;;;;4.65;2.63;;;;;;;;;;5108843;28;20379;-83
2021/07/20 13:51:19;;;;;;;7.15;2.25;;;;;;;;;;5097303;28;20047;-76
2021/07/20 13:53:51;;;;;;;3.92;2.65;;;;;;;;;;5096463;28;20035;-84
2021/07/20 13:56:28;;;;;;;7.60;2.30;;;;;;;;;;5098123;28;20039;-87
2021/07/20 13:58:56;;;;;;;3.70;2.30;;;;;;;;;;5113391;28;20071;-85
2021/07/20 14:01:22;;;;;;;6.75;2.65;;;;;;;;;;5095720;28;20074;-81
2021/07/20 14:03:49;;;;;;;4.72;2.30;;;;;;;;;;5082018;28;20036;-84
2021/07/20 14:06:15;;;;;;;4.60;2.25;;;;;;;;;;5081864;28;20108;-83
2021/07/20 14:08:41;;;;;;;9.82;2.80;;;;;;;;;;5099456;28;20072;-84
2021/07/20 14:11:07;;;;;;;4.45;2.60;;;;;;;;;;5101447;28;20395;-84
2021/07/20 14:13:34;;;;;;;9.15;2.38;;;;;;;;;;5101279;28;20486;-84
2021/07/20 14:16:00;;;;;;;3.78;2.20;;;;;;;;;;5101998;28;20032;-84
2021/07/20 14:18:30;;;;;;;6.18;2.88;;;;;;;;;;5088400;28;20663;-84
2021/07/20 14:20:56;;;;;;;3.55;2.50;;;;;;;;;;5079610;28;20483;-84
2021/07/20 14:23:23;;;;;;;3.03;1.98;;;;;;;;;;5079131;28;20112;-84
2021/07/20 14:25:54;;;;;;;6.13;2.28;;;;;;;;;;5062781;28;20032;-85
2021/07/20 14:28:22;;;;;;;3.53;2.00;;;;;;;;;;5062997;28;20048;-84
2021/07/20 14:30:51;;;;;;;5.32;2.25;;;;;;;;;;5080472;28;20024;-84
2021/07/20 14:33:19;;;;;;;7.13;2.60;;;;;;;;;;5061699;28;20040;-83
2021/07/20 14:35:45;;;;;;;6.53;2.13;;;;;;;;;;5060462;28;20036;-83
2021/07/20 14:38:33;;;;;;;5.93;2.38;;;;;;;;;;5077747;28;20040;-83
2021/07/20 14:41:07;;;;;;;8.70;2.10;;;;;;;;;;5060591;28;20033;-83
2021/07/20 14:43:37;;;;;;;16.55;2.67;;;;;;;;;;5076499;28;20054;-83
2021/07/20 14:46:21;;;;;;;4.95;2.22;;;;;;;;;;5062284;28;20121;-84
2021/07/20 14:48:47;;;;;;;7.70;2.47;;;;;;;;;;5061124;28;20100;-81
2021/07/20 14:51:15;;;;;;;4.32;2.10;;;;;;;;;;5076092;28;20036;-84
2021/07/20 14:53:51;;;;;;;4.57;2.40;;;;;;;;;;5059526;28;20028;-83
2021/07/20 14:56:18;;;;;;;5.45;2.33;;;;;;;;;;5076028;28;20033;-82
2021/07/20 14:58:52;;;;;;;3.72;2.30;;;;;;;;;;5060028;28;20060;-83
2021/07/20 15:01:25;;;;;;;5.03;2.33;;;;;;;;;;5059207;28;20042;-83
2021/07/20 15:03:57;;;;;;;5.85;2.33;;;;;;;;;;5058965;28;20036;-83
2021/07/20 15:06:27;;;;;;;6.18;2.40;;;;;;;;;;5059482;28;20388;-83